OOCL Atlanta — VRAR6 — position and weather

sailwx.info

Track history (hours):
 
Tides and Currents Weather Stations Pressure Air Temp Water Temp Dewpoint Dewpoint Depression Visibility Wind Speed Wind Dir Waves Ship Positions

OOCL Atlanta

Last reported at 2018-Feb-18 00:02 UTC. Time now 2018-Feb-18 09:07 UTC.
Position N 01°15' E 104°03'.

Length 323 m; beam 42.8 m; draft 14.5 m.

Type: Cargo ship. MMSI: 477920300.

Date/timePositionNaut miles runAvg speedWind from/ knotsBaromVisibWave heightAir tempDewpointWater temp
2018-Feb-18 00:02N 01°15' E 104°03'114.8
2018-Feb-17 23:59N 01°15' E 104°02'714.9
2018-Feb-17 23:30N 01°13' E 103°55'612.0
2018-Feb-17 22:59N 01°12' E 103°49'4 8.1
2018-Feb-17 22:30N 01°15' E 103°46'2 4.1
2018-Feb-17 22:00N 01°17' E 103°46'0 0.9
2018-Feb-17 21:29N 01°17' E 103°46'0 0.0
2018-Feb-17 20:59N 01°17' E 103°46'0 0.0
2018-Feb-17 20:29N 01°17' E 103°46'0 0.0
2018-Feb-17 19:56N 01°17' E 103°46'0 0.0
2018-Feb-17 19:29N 01°17' E 103°46'0 0.0
2018-Feb-17 18:56N 01°17' E 103°46'0 0.0
2018-Feb-17 18:26N 01°17' E 103°46'0 0.0
2018-Feb-17 17:56N 01°17' E 103°46'0 0.0
2018-Feb-17 17:26N 01°17' E 103°46'0 0.0
2018-Feb-17 16:50N 01°17' E 103°46'0 0.0
2018-Feb-17 16:26N 01°17' E 103°46'0 0.0
2018-Feb-17 15:56N 01°17' E 103°46'0 0.0
2018-Feb-17 15:26N 01°17' E 103°46'0 0.0
2018-Feb-17 14:56N 01°17' E 103°46'0 0.0
2018-Feb-17 14:26N 01°17' E 103°46'0 0.0
2018-Feb-17 13:56N 01°17' E 103°46'0 0.0
2018-Feb-17 13:26N 01°17' E 103°46'0 0.0
2018-Feb-17 12:56N 01°17' E 103°46'0 0.0
2018-Feb-17 12:26N 01°17' E 103°46'0 0.0
2018-Feb-17 11:56N 01°17' E 103°46'0 0.0
2018-Feb-17 11:26N 01°17' E 103°46'0 0.0
2018-Feb-17 10:56N 01°17' E 103°46'0 0.0
2018-Feb-17 10:26N 01°17' E 103°46'0 0.0
2018-Feb-17 09:50N 01°17' E 103°46'0 0.0
2018-Feb-17 09:26N 01°17' E 103°46'0 0.0
2018-Feb-17 08:56N 01°17' E 103°46'0 0.0
2018-Feb-17 08:26N 01°17' E 103°46'0 0.0
2018-Feb-17 07:50N 01°17' E 103°46'0 0.0
2018-Feb-17 07:26N 01°17' E 103°46'0 0.0
2018-Feb-17 06:56N 01°17' E 103°46'0 0.0
2018-Feb-17 06:29N 01°17' E 103°46'0 0.0
2018-Feb-17 05:56N 01°17' E 103°46'0 0.0
2018-Feb-17 05:26N 01°17' E 103°46'0 0.0
2018-Feb-17 04:53N 01°17' E 103°46'0 0.0
2018-Feb-17 04:26N 01°17' E 103°46'0 0.0
2018-Feb-17 03:59N 01°17' E 103°46'0 0.0
2018-Feb-17 03:26N 01°17' E 103°46'0 0.0
2018-Feb-17 02:59N 01°17' E 103°46'0 0.0
2018-Feb-17 02:26N 01°17' E 103°46'0 0.0
2018-Feb-17 01:59N 01°17' E 103°46'0 0.0
2018-Feb-17 01:29N 01°17' E 103°46'0 0.0
2018-Feb-17 00:56N 01°17' E 103°46'0 0.0
2018-Feb-17 00:30N 01°17' E 103°46'0 0.5
2018-Feb-17 00:00N 01°17' E 103°46'1 2.0
2018-Feb-16 23:30N 01°16' E 103°45'3 5.6
2018-Feb-16 22:58N 01°14' E 103°43'3 7.1
2018-Feb-16 22:30N 01°13' E 103°40'4 7.6
2018-Feb-16 22:00N 01°12' E 103°36'3 5.2
2018-Feb-16 21:30N 01°12' E 103°34'4 8.0
2018-Feb-16 20:59N 01°11' E 103°30'3 6.9
2018-Feb-16 20:29N 01°10' E 103°26'5 8.1
2018-Feb-16 19:52N 01°13' E 103°22'3 8.2
2018-Feb-16 19:27N 01°15' E 103°20'4 8.0
2018-Feb-16 18:58N 01°18' E 103°17'  
Track history (hours):
 
Tides and Currents Weather Stations Pressure Air Temp Water Temp Dewpoint Dewpoint Depression Visibility Wind Speed Wind Dir Waves Ship Positions

OOCL Atlanta

Last reported at 2018-Feb-18 00:02 UTC. Time now 2018-Feb-18 09:07 UTC.
Position N 01°15' E 104°03'.

Length 323 m; beam 42.8 m; draft 14.5 m.

Type: Cargo ship. MMSI: 477920300.

Date/timePositionNaut miles runAvg speedWind from/ knotsBaromVisibWave heightAir tempDewpointWater temp
2018-Feb-18 00:02N 01°15' E 104°03'114.8
2018-Feb-17 23:59N 01°15' E 104°02'714.9
2018-Feb-17 23:30N 01°13' E 103°55'612.0
2018-Feb-17 22:59N 01°12' E 103°49'4 8.1
2018-Feb-17 22:30N 01°15' E 103°46'2 4.1
2018-Feb-17 22:00N 01°17' E 103°46'0 0.9
2018-Feb-17 21:29N 01°17' E 103°46'0 0.0
2018-Feb-17 20:59N 01°17' E 103°46'0 0.0
2018-Feb-17 20:29N 01°17' E 103°46'0 0.0
2018-Feb-17 19:56N 01°17' E 103°46'0 0.0
2018-Feb-17 19:29N 01°17' E 103°46'0 0.0
2018-Feb-17 18:56N 01°17' E 103°46'0 0.0
2018-Feb-17 18:26N 01°17' E 103°46'0 0.0
2018-Feb-17 17:56N 01°17' E 103°46'0 0.0
2018-Feb-17 17:26N 01°17' E 103°46'0 0.0
2018-Feb-17 16:50N 01°17' E 103°46'0 0.0
2018-Feb-17 16:26N 01°17' E 103°46'0 0.0
2018-Feb-17 15:56N 01°17' E 103°46'0 0.0
2018-Feb-17 15:26N 01°17' E 103°46'0 0.0
2018-Feb-17 14:56N 01°17' E 103°46'0 0.0
2018-Feb-17 14:26N 01°17' E 103°46'0 0.0
2018-Feb-17 13:56N 01°17' E 103°46'0 0.0
2018-Feb-17 13:26N 01°17' E 103°46'0 0.0
2018-Feb-17 12:56N 01°17' E 103°46'0 0.0
2018-Feb-17 12:26N 01°17' E 103°46'0 0.0
2018-Feb-17 11:56N 01°17' E 103°46'0 0.0
2018-Feb-17 11:26N 01°17' E 103°46'0 0.0
2018-Feb-17 10:56N 01°17' E 103°46'0 0.0
2018-Feb-17 10:26N 01°17' E 103°46'0 0.0
2018-Feb-17 09:50N 01°17' E 103°46'0 0.0
2018-Feb-17 09:26N 01°17' E 103°46'0 0.0
2018-Feb-17 08:56N 01°17' E 103°46'0 0.0
2018-Feb-17 08:26N 01°17' E 103°46'0 0.0
2018-Feb-17 07:50N 01°17' E 103°46'0 0.0
2018-Feb-17 07:26N 01°17' E 103°46'0 0.0
2018-Feb-17 06:56N 01°17' E 103°46'0 0.0
2018-Feb-17 06:29N 01°17' E 103°46'0 0.0
2018-Feb-17 05:56N 01°17' E 103°46'0 0.0
2018-Feb-17 05:26N 01°17' E 103°46'0 0.0
2018-Feb-17 04:53N 01°17' E 103°46'0 0.0
2018-Feb-17 04:26N 01°17' E 103°46'0 0.0
2018-Feb-17 03:59N 01°17' E 103°46'0 0.0
2018-Feb-17 03:26N 01°17' E 103°46'0 0.0
2018-Feb-17 02:59N 01°17' E 103°46'0 0.0
2018-Feb-17 02:26N 01°17' E 103°46'0 0.0
2018-Feb-17 01:59N 01°17' E 103°46'0 0.0
2018-Feb-17 01:29N 01°17' E 103°46'0 0.0
2018-Feb-17 00:56N 01°17' E 103°46'0 0.0
2018-Feb-17 00:30N 01°17' E 103°46'0 0.5
2018-Feb-17 00:00N 01°17' E 103°46'1 2.0
2018-Feb-16 23:30N 01°16' E 103°45'3 5.6
2018-Feb-16 22:58N 01°14' E 103°43'3 7.1
2018-Feb-16 22:30N 01°13' E 103°40'4 7.6
2018-Feb-16 22:00N 01°12' E 103°36'3 5.2
2018-Feb-16 21:30N 01°12' E 103°34'4 8.0
2018-Feb-16 20:59N 01°11' E 103°30'3 6.9
2018-Feb-16 20:29N 01°10' E 103°26'5 8.1
2018-Feb-16 19:52N 01°13' E 103°22'3 8.2
2018-Feb-16 19:27N 01°15' E 103°20'4 8.0
2018-Feb-16 18:58N 01°18' E 103°17'  

Dump ship's entire track history